createdAt,value
2023-05-14T00:02:04.284Z,19.27
2023-05-14T00:04:31.728Z,19.17
2023-05-14T00:06:59.124Z,19.25
2023-05-14T00:09:26.252Z,19.23
2023-05-14T00:11:53.390Z,19.29
2023-05-14T00:14:22.600Z,19.25
2023-05-14T00:16:50.263Z,19.30
2023-05-14T00:19:17.503Z,19.28
2023-05-14T00:21:45.063Z,19.21
2023-05-14T00:24:12.251Z,19.22
2023-05-14T00:26:39.279Z,19.18
2023-05-14T00:29:06.444Z,19.17
2023-05-14T00:31:33.675Z,19.19
2023-05-14T00:34:00.958Z,19.22
2023-05-14T00:36:28.032Z,19.21
2023-05-14T00:38:55.130Z,19.23
2023-05-14T00:41:23.510Z,19.25
2023-05-14T00:43:51.064Z,19.20
2023-05-14T00:46:18.379Z,19.19
2023-05-14T00:48:45.524Z,19.15
2023-05-14T00:51:12.802Z,19.19
2023-05-14T00:53:40.580Z,19.19
2023-05-14T00:56:08.853Z,19.20
2023-05-14T00:58:36.113Z,19.25
2023-05-14T01:01:03.651Z,19.26
2023-05-14T01:03:32.783Z,19.29
2023-05-14T01:06:12.474Z,19.27
2023-05-14T01:08:47.553Z,19.23
2023-05-14T01:11:27.935Z,19.17
2023-05-14T01:14:20.196Z,19.14
2023-05-14T01:16:50.465Z,19.12
2023-05-14T01:19:30.206Z,19.10
2023-05-14T01:22:02.194Z,19.18
2023-05-14T01:24:32.830Z,19.16
2023-05-14T01:27:11.653Z,19.16
2023-05-14T01:29:43.716Z,19.16
2023-05-14T01:32:11.620Z,19.08
2023-05-14T01:34:40.412Z,19.10
2023-05-14T01:37:14.317Z,19.14
2023-05-14T01:39:45.606Z,19.16
2023-05-14T01:42:16.026Z,19.18
2023-05-14T01:44:43.818Z,19.15
2023-05-14T01:47:11.832Z,19.15
2023-05-14T01:49:39.594Z,19.11
2023-05-14T01:52:08.691Z,19.09
2023-05-14T01:54:42.151Z,19.07
2023-05-14T01:57:09.244Z,18.80
2023-05-14T01:59:36.825Z,18.78
2023-05-14T02:02:07.230Z,18.82
2023-05-14T02:04:35.672Z,18.88
2023-05-14T02:07:05.583Z,18.89
2023-05-14T02:09:35.213Z,18.84
2023-05-14T02:12:02.469Z,18.73
2023-05-14T02:14:33.133Z,18.80
2023-05-14T02:17:06.654Z,18.67
2023-05-14T02:19:45.014Z,18.62
2023-05-14T02:22:14.738Z,18.54
2023-05-14T02:24:42.300Z,18.54
2023-05-14T02:27:13.033Z,18.52
2023-05-14T02:29:40.382Z,18.53
2023-05-14T02:32:08.216Z,18.55
2023-05-14T02:34:39.179Z,18.46
2023-05-14T02:37:06.903Z,18.50
2023-05-14T02:39:34.113Z,18.48
2023-05-14T02:42:01.417Z,18.51
2023-05-14T02:44:28.476Z,18.52
2023-05-14T02:46:55.795Z,18.48
2023-05-14T02:49:23.073Z,18.45
2023-05-14T02:51:50.178Z,18.46
2023-05-14T02:54:17.408Z,18.42
2023-05-14T02:56:44.540Z,18.42
2023-05-14T02:59:11.662Z,18.45
2023-05-14T03:01:39.922Z,18.42
2023-05-14T03:04:08.179Z,18.38
2023-05-14T03:06:36.486Z,18.33
2023-05-14T03:09:03.939Z,18.38
2023-05-14T03:11:31.327Z,18.40
2023-05-14T03:13:58.346Z,18.36
2023-05-14T03:16:25.681Z,18.31
2023-05-14T03:18:52.946Z,18.39
2023-05-14T03:21:20.382Z,18.39
2023-05-14T03:23:49.199Z,18.35
2023-05-14T03:26:21.745Z,18.32
2023-05-14T03:28:49.242Z,18.35
2023-05-14T03:31:16.354Z,18.37
2023-05-14T03:33:45.768Z,18.33
2023-05-14T03:36:13.503Z,18.37
2023-05-14T03:38:40.673Z,18.38
2023-05-14T03:41:07.735Z,18.36
2023-05-14T03:43:35.325Z,18.31
2023-05-14T03:46:02.391Z,18.33
2023-05-14T03:48:29.722Z,18.37
2023-05-14T03:50:57.027Z,18.36
2023-05-14T03:53:24.093Z,18.34
2023-05-14T03:55:51.249Z,18.32
2023-05-14T03:58:18.273Z,18.34
2023-05-14T04:00:52.065Z,18.32
2023-05-14T04:03:19.329Z,18.34
2023-05-14T04:05:47.160Z,18.33
2023-05-14T04:08:14.291Z,18.30
2023-05-14T04:10:43.255Z,18.32
2023-05-14T04:13:10.508Z,18.21
2023-05-14T04:15:40.120Z,18.24
2023-05-14T04:18:10.081Z,18.27
2023-05-14T04:20:37.410Z,18.27
2023-05-14T04:23:04.605Z,18.28
2023-05-14T04:25:31.829Z,18.32
2023-05-14T04:27:58.880Z,18.20
2023-05-14T04:30:26.649Z,18.24
2023-05-14T04:32:53.759Z,18.15
2023-05-14T04:35:24.944Z,18.13
2023-05-14T04:37:52.505Z,18.27
2023-05-14T04:40:19.981Z,18.17
2023-05-14T04:42:47.364Z,18.21
2023-05-14T04:45:14.862Z,18.10
2023-05-14T04:47:42.131Z,18.13
2023-05-14T04:50:10.025Z,18.11
2023-05-14T04:52:38.562Z,17.91
2023-05-14T04:55:09.509Z,18.00
2023-05-14T04:57:36.819Z,18.03
2023-05-14T05:00:06.263Z,18.08
2023-05-14T05:02:34.996Z,18.08
2023-05-14T05:05:02.651Z,18.00
2023-05-14T05:07:29.917Z,17.89
2023-05-14T05:09:57.093Z,18.01
2023-05-14T05:12:24.184Z,17.96
2023-05-14T05:14:54.306Z,18.01
2023-05-14T05:17:21.670Z,18.03
2023-05-14T05:19:48.736Z,18.00
2023-05-14T05:22:16.261Z,18.05
2023-05-14T05:24:43.379Z,17.99
2023-05-14T05:27:10.594Z,17.84
2023-05-14T05:29:37.859Z,17.91
2023-05-14T05:32:05.589Z,18.03
2023-05-14T05:34:32.718Z,18.00
2023-05-14T05:37:02.135Z,17.97
2023-05-14T05:39:35.102Z,18.10
2023-05-14T05:42:02.926Z,18.14
2023-05-14T05:44:30.045Z,18.16
2023-05-14T05:46:57.949Z,18.18
2023-05-14T05:49:25.008Z,18.21
2023-05-14T05:51:52.176Z,18.13
2023-05-14T05:54:19.341Z,18.21
2023-05-14T05:56:46.596Z,18.08
2023-05-14T05:59:13.704Z,18.20
2023-05-14T06:01:41.788Z,18.28
2023-05-14T06:04:08.811Z,18.17
2023-05-14T06:06:36.064Z,18.27
2023-05-14T06:09:03.325Z,18.29
2023-05-14T06:11:30.406Z,18.35
2023-05-14T06:13:57.471Z,18.51
2023-05-14T06:16:24.859Z,18.56
2023-05-14T06:18:52.926Z,18.41
2023-05-14T06:21:20.242Z,18.39
2023-05-14T06:23:47.518Z,18.48
2023-05-14T06:26:14.694Z,18.40
2023-05-14T06:28:42.074Z,18.41
2023-05-14T06:31:09.279Z,18.24
2023-05-14T06:33:36.623Z,18.35
2023-05-14T06:36:07.988Z,18.44
2023-05-14T06:38:35.503Z,18.29
2023-05-14T06:41:02.767Z,18.40
2023-05-14T06:43:30.458Z,18.51
2023-05-14T06:46:00.537Z,18.37
2023-05-14T06:48:31.125Z,18.44
2023-05-14T06:50:58.307Z,18.45
2023-05-14T06:53:25.557Z,18.38
2023-05-14T06:55:56.547Z,18.44
2023-05-14T06:58:23.795Z,18.56
2023-05-14T07:00:50.831Z,18.43
2023-05-14T07:03:18.062Z,18.40
2023-05-14T07:05:46.804Z,18.58
2023-05-14T07:08:14.252Z,18.50
2023-05-14T07:10:41.405Z,18.67
2023-05-14T07:13:08.833Z,18.76
2023-05-14T07:15:35.970Z,18.81
2023-05-14T07:18:03.139Z,18.90
2023-05-14T07:20:30.199Z,18.94
2023-05-14T07:22:57.295Z,18.88
2023-05-14T07:25:24.452Z,18.97
2023-05-14T07:27:51.875Z,19.07
2023-05-14T07:30:21.083Z,19.15
2023-05-14T07:32:48.430Z,19.15
2023-05-14T07:35:16.857Z,19.25
2023-05-14T07:37:44.452Z,19.26
2023-05-14T07:40:16.916Z,19.35
2023-05-14T07:42:47.117Z,19.37
2023-05-14T07:45:17.018Z,19.53
2023-05-14T07:47:44.210Z,19.53
2023-05-14T07:50:12.245Z,19.61
2023-05-14T07:52:39.373Z,19.69
2023-05-14T07:55:07.322Z,19.80
2023-05-14T07:57:34.396Z,19.83
2023-05-14T08:00:01.512Z,19.98
2023-05-14T08:02:28.794Z,20.16
2023-05-14T08:04:56.183Z,20.21
2023-05-14T08:07:23.192Z,20.39
2023-05-14T08:09:50.842Z,20.44
2023-05-14T08:12:20.969Z,20.48
2023-05-14T08:14:51.022Z,20.70
2023-05-14T08:17:20.979Z,21.06
2023-05-14T08:19:54.770Z,21.25
2023-05-14T08:22:22.032Z,21.40
2023-05-14T08:24:49.784Z,21.66
2023-05-14T08:27:22.152Z,21.93
2023-05-14T08:29:49.761Z,22.14
2023-05-14T08:32:23.347Z,22.47
2023-05-14T08:34:54.472Z,22.75
2023-05-14T08:37:23.876Z,22.94
2023-05-14T08:39:53.274Z,23.17
2023-05-14T08:42:22.317Z,23.37
2023-05-14T08:44:53.519Z,23.57
2023-05-14T08:47:22.701Z,23.88
2023-05-14T08:50:04.626Z,23.93
2023-05-14T08:52:35.643Z,24.20
2023-05-14T08:55:05.667Z,24.17
2023-05-14T08:57:38.886Z,24.62
2023-05-14T09:01:02.930Z,24.95
2023-05-14T09:03:31.582Z,25.19
2023-05-14T09:06:04.619Z,24.99
2023-05-14T09:08:38.860Z,25.25
2023-05-14T09:11:06.111Z,25.20
2023-05-14T09:13:35.646Z,25.47
2023-05-14T09:16:04.320Z,25.72
2023-05-14T09:18:32.254Z,26.06
2023-05-14T09:21:09.340Z,26.23
2023-05-14T09:23:42.027Z,26.38
2023-05-14T09:26:14.703Z,26.30
2023-05-14T09:28:42.230Z,26.58
2023-05-14T09:31:10.298Z,26.59
2023-05-14T09:33:37.545Z,25.87
2023-05-14T09:36:09.659Z,26.52
2023-05-14T09:38:39.519Z,25.78
2023-05-14T09:41:07.701Z,26.00
2023-05-14T09:43:40.637Z,26.03
2023-05-14T09:46:10.060Z,26.12
2023-05-14T09:48:37.384Z,25.45
2023-05-14T09:51:05.953Z,25.38
2023-05-14T09:53:34.879Z,26.26
2023-05-14T09:56:02.690Z,25.87
2023-05-14T09:58:30.270Z,26.35
2023-05-14T10:00:59.004Z,26.48
2023-05-14T10:03:29.605Z,26.35
2023-05-14T10:06:09.409Z,26.63
2023-05-14T10:08:41.414Z,27.02
2023-05-14T10:11:14.436Z,26.24
2023-05-14T10:13:53.534Z,26.38
2023-05-14T10:16:35.523Z,26.30
2023-05-14T10:19:12.364Z,26.51
2023-05-14T10:21:42.105Z,26.30
2023-05-14T10:24:11.385Z,25.57
2023-05-14T10:26:42.370Z,26.23
2023-05-14T10:29:13.412Z,26.46
2023-05-14T10:31:54.063Z,25.50
2023-05-14T10:34:48.797Z,25.22
2023-05-14T10:37:39.195Z,24.94
2023-05-14T10:40:15.916Z,24.93
2023-05-14T10:42:47.216Z,24.38
2023-05-14T10:45:18.109Z,25.13
2023-05-14T10:47:49.297Z,24.70
2023-05-14T10:50:17.817Z,24.85
2023-05-14T10:52:46.005Z,24.55
2023-05-14T10:55:20.212Z,24.96
2023-05-14T10:57:50.117Z,25.46
2023-05-14T11:00:17.953Z,25.52
2023-05-14T11:02:47.153Z,25.33
2023-05-14T11:05:17.512Z,24.23
2023-05-14T11:07:49.052Z,24.90
2023-05-14T11:10:22.258Z,24.83
2023-05-14T11:12:53.431Z,24.98
2023-05-14T11:15:28.989Z,24.87
2023-05-14T11:17:58.586Z,24.20
2023-05-14T11:20:27.814Z,24.23
2023-05-14T11:22:58.487Z,24.43
2023-05-14T11:25:30.922Z,24.26
2023-05-14T11:28:00.994Z,24.58
2023-05-14T11:30:31.240Z,24.09
2023-05-14T11:33:02.219Z,24.28
2023-05-14T11:35:33.551Z,24.34
2023-05-14T11:38:01.508Z,24.44
2023-05-14T11:40:39.050Z,24.51
2023-05-14T11:43:08.922Z,24.69
2023-05-14T11:45:38.706Z,24.50
2023-05-14T11:48:15.415Z,24.55
2023-05-14T11:50:49.995Z,24.68
2023-05-14T11:53:32.066Z,24.92
2023-05-14T11:56:00.108Z,25.00
2023-05-14T11:58:32.663Z,24.98
2023-05-14T12:01:00.305Z,24.46
2023-05-14T12:03:32.850Z,24.36
2023-05-14T12:06:02.026Z,24.81
2023-05-14T12:08:31.585Z,25.45
2023-05-14T12:11:07.493Z,25.56
2023-05-14T12:13:39.952Z,24.77
2023-05-14T12:16:10.570Z,24.56
2023-05-14T12:18:37.931Z,24.07
2023-05-14T12:21:08.696Z,23.77
2023-05-14T12:23:36.008Z,23.58
2023-05-14T12:26:09.036Z,23.98
2023-05-14T12:28:43.708Z,24.01
2023-05-14T12:31:12.116Z,24.39
2023-05-14T12:33:46.108Z,23.26
2023-05-14T12:36:21.355Z,23.24
2023-05-14T12:38:59.137Z,23.85
2023-05-14T12:41:26.269Z,22.72
2023-05-14T12:44:01.150Z,22.77
2023-05-14T12:46:29.180Z,23.28
2023-05-14T12:48:57.242Z,23.10
2023-05-14T12:51:33.338Z,23.61
2023-05-14T12:54:05.297Z,23.90
2023-05-14T12:56:38.392Z,23.85
2023-05-14T12:59:06.691Z,23.19
2023-05-14T13:01:38.702Z,23.24
2023-05-14T13:04:06.512Z,23.31
2023-05-14T13:06:35.115Z,23.33
2023-05-14T13:09:04.440Z,23.38
2023-05-14T13:11:34.577Z,23.38
2023-05-14T13:14:07.137Z,22.90
2023-05-14T13:16:39.200Z,22.54
2023-05-14T13:19:06.665Z,22.84
2023-05-14T13:21:39.362Z,22.54
2023-05-14T13:24:09.624Z,22.85
2023-05-14T13:26:39.638Z,23.08
2023-05-14T13:29:09.352Z,22.70
2023-05-14T13:31:46.474Z,22.96
2023-05-14T13:34:19.828Z,23.18
2023-05-14T13:36:53.041Z,23.31
2023-05-14T13:39:30.153Z,23.03
2023-05-14T13:41:57.487Z,22.96
2023-05-14T13:44:36.405Z,22.74
2023-05-14T13:47:03.724Z,22.28
2023-05-14T13:49:35.791Z,21.73
2023-05-14T13:52:11.040Z,22.02
2023-05-14T13:54:45.483Z,21.38
2023-05-14T13:57:18.788Z,21.70
2023-05-14T13:59:52.843Z,21.09
2023-05-14T14:02:29.305Z,20.67
2023-05-14T14:05:06.025Z,20.47
2023-05-14T14:07:44.250Z,20.48
2023-05-14T14:10:19.817Z,20.67
2023-05-14T14:12:51.837Z,21.13
2023-05-14T14:15:27.508Z,21.28
2023-05-14T14:18:02.452Z,21.36
2023-05-14T14:20:38.586Z,22.02
2023-05-14T14:23:17.013Z,22.26
2023-05-14T14:25:51.667Z,22.14
2023-05-14T14:28:43.609Z,22.47
2023-05-14T14:31:17.176Z,22.09
2023-05-14T14:34:01.609Z,22.53
2023-05-14T14:36:30.907Z,22.53
2023-05-14T14:39:16.083Z,22.47
2023-05-14T14:41:50.817Z,22.79
2023-05-14T14:44:44.815Z,23.06
2023-05-14T14:47:24.035Z,22.94
2023-05-14T14:50:02.105Z,22.78
2023-05-14T14:52:46.136Z,22.95
2023-05-14T14:55:17.408Z,23.05
2023-05-14T14:57:49.371Z,23.27
2023-05-14T15:00:20.005Z,23.12
2023-05-14T15:02:57.330Z,23.16
2023-05-14T15:05:28.457Z,22.68
2023-05-14T15:08:00.613Z,22.55
2023-05-14T15:10:29.217Z,22.74
2023-05-14T15:12:59.830Z,22.70
2023-05-14T15:15:29.588Z,22.84
2023-05-14T15:18:01.782Z,23.17
2023-05-14T15:20:29.486Z,23.42
2023-05-14T15:22:59.701Z,23.40
2023-05-14T15:25:29.108Z,23.64
2023-05-14T15:27:56.308Z,23.75
2023-05-14T15:30:29.948Z,24.05
2023-05-14T15:33:02.513Z,24.38
2023-05-14T15:35:36.774Z,23.95
2023-05-14T15:38:07.333Z,23.59
2023-05-14T15:40:37.618Z,23.51
2023-05-14T15:43:06.534Z,23.89
2023-05-14T15:45:55.294Z,23.99
2023-05-14T15:48:24.998Z,24.06
2023-05-14T15:50:59.509Z,24.10
2023-05-14T15:53:34.727Z,24.14
2023-05-14T15:56:15.351Z,24.24
2023-05-14T15:58:45.244Z,24.19
2023-05-14T16:01:18.873Z,24.15
2023-05-14T16:04:01.346Z,24.21
2023-05-14T16:06:36.417Z,24.27
2023-05-14T16:09:06.436Z,24.21
2023-05-14T16:11:39.085Z,24.22
2023-05-14T16:14:11.079Z,24.09
2023-05-14T16:16:41.594Z,24.02
2023-05-14T16:19:19.741Z,24.08
2023-05-14T16:21:52.363Z,24.06
2023-05-14T16:24:26.455Z,23.87
2023-05-14T16:26:56.379Z,23.94
2023-05-14T16:29:23.631Z,23.87
2023-05-14T16:31:53.775Z,23.68
2023-05-14T16:34:23.268Z,23.68
2023-05-14T16:36:56.862Z,23.69
2023-05-14T16:39:27.996Z,23.38
2023-05-14T16:41:55.431Z,23.52
2023-05-14T16:47:14.876Z,23.33
2023-05-14T16:49:49.874Z,23.28
2023-05-14T16:52:18.565Z,23.20
2023-05-14T16:54:55.620Z,22.63
2023-05-14T16:57:29.423Z,22.01
2023-05-14T17:00:17.326Z,21.24
2023-05-14T17:02:57.647Z,21.94
2023-05-14T17:05:41.656Z,22.04
2023-05-14T17:08:17.394Z,22.36
2023-05-14T17:10:55.801Z,22.59
2023-05-14T17:13:37.302Z,22.70
2023-05-14T17:16:15.085Z,22.74
2023-05-14T17:18:50.917Z,22.61
2023-05-14T17:21:28.250Z,22.80
2023-05-14T17:24:00.997Z,21.98
2023-05-14T17:26:50.014Z,21.29
2023-05-14T17:29:31.171Z,21.91
2023-05-14T17:34:57.205Z,22.23
2023-05-14T17:37:45.741Z,22.39
2023-05-14T17:40:22.968Z,22.55
2023-05-14T17:43:07.068Z,22.56
2023-05-14T17:48:36.768Z,22.60
2023-05-14T17:51:12.286Z,22.61
2023-05-14T17:53:46.497Z,22.64
2023-05-14T17:56:21.672Z,22.54
2023-05-14T17:58:56.539Z,22.16
2023-05-14T18:01:35.315Z,22.27
2023-05-14T18:04:16.997Z,22.25
2023-05-14T18:07:15.860Z,22.25
2023-05-14T18:09:46.419Z,22.11
2023-05-14T18:12:38.611Z,22.20
2023-05-14T18:15:41.532Z,22.29
2023-05-14T18:18:11.747Z,22.22
2023-05-14T18:20:52.343Z,22.21
2023-05-14T18:23:36.734Z,22.31
2023-05-14T18:26:13.576Z,22.34
2023-05-14T18:28:54.864Z,22.34
2023-05-14T18:31:32.275Z,22.24
2023-05-14T18:34:09.446Z,21.88
2023-05-14T18:37:04.304Z,21.89
2023-05-14T18:39:35.464Z,21.73
2023-05-14T18:42:19.410Z,21.88
2023-05-14T18:44:59.701Z,21.75
2023-05-14T18:47:52.215Z,21.56
2023-05-14T18:50:25.406Z,21.49
2023-05-14T18:53:06.394Z,21.66
2023-05-14T18:55:39.969Z,21.56
2023-05-14T18:58:12.310Z,21.60
2023-05-14T19:00:49.018Z,21.65
2023-05-14T19:03:26.295Z,21.57
2023-05-14T19:06:02.550Z,21.71
2023-05-14T19:08:37.731Z,21.77
2023-05-14T19:11:15.293Z,21.51
2023-05-14T19:13:59.125Z,21.60
2023-05-14T19:16:30.796Z,21.68
2023-05-14T19:19:28.153Z,21.84
2023-05-14T19:21:56.985Z,21.97
2023-05-14T19:24:43.861Z,22.02
2023-05-14T19:27:17.558Z,22.10
2023-05-14T19:29:56.242Z,22.07
2023-05-14T19:32:27.744Z,22.03
2023-05-14T19:35:02.566Z,21.76
2023-05-14T19:37:55.826Z,21.95
2023-05-14T19:40:32.286Z,21.71
2023-05-14T19:43:05.149Z,21.52
2023-05-14T19:45:49.121Z,21.51
2023-05-14T19:48:24.258Z,21.62
2023-05-14T19:50:52.429Z,21.66
2023-05-14T19:53:40.246Z,21.68
2023-05-14T19:56:14.333Z,21.75
2023-05-14T19:58:51.135Z,21.79
2023-05-14T20:01:26.676Z,21.83
2023-05-14T20:07:06.711Z,21.86
2023-05-14T20:10:00.177Z,21.93
2023-05-14T20:12:30.000Z,21.94
2023-05-14T20:15:15.137Z,21.90
2023-05-14T20:17:54.770Z,21.94
2023-05-14T20:20:29.666Z,21.90
2023-05-14T20:23:16.911Z,21.59
2023-05-14T20:25:48.203Z,21.28
2023-05-14T20:28:20.255Z,21.43
2023-05-14T20:30:47.755Z,21.41
2023-05-14T20:33:15.207Z,21.39
2023-05-14T20:35:47.182Z,21.55
2023-05-14T20:38:25.868Z,21.49
2023-05-14T20:40:58.079Z,21.40
2023-05-14T20:43:27.309Z,21.50
2023-05-14T20:45:54.434Z,21.55
2023-05-14T20:48:22.227Z,21.54
2023-05-14T20:50:49.276Z,21.61
2023-05-14T20:53:16.259Z,21.72
2023-05-14T20:55:44.979Z,21.67
2023-05-14T20:58:12.077Z,21.69
2023-05-14T21:00:39.748Z,21.62
2023-05-14T21:03:07.188Z,21.54
2023-05-14T21:05:34.389Z,21.55
2023-05-14T21:08:01.532Z,21.55
2023-05-14T21:10:28.941Z,21.39
2023-05-14T21:12:56.093Z,21.38
2023-05-14T21:15:23.532Z,21.18
2023-05-14T21:17:50.836Z,21.28
2023-05-14T21:20:20.707Z,21.37
2023-05-14T21:22:50.927Z,21.41
2023-05-14T21:25:20.975Z,21.41
2023-05-14T21:27:48.403Z,21.40
2023-05-14T21:30:16.015Z,21.44
2023-05-14T21:32:49.474Z,21.48
2023-05-14T21:35:19.169Z,21.50
2023-05-14T21:37:46.457Z,21.51
2023-05-14T21:40:13.659Z,21.54
2023-05-14T21:42:41.047Z,21.54
2023-05-14T21:45:08.408Z,21.48
2023-05-14T21:47:35.718Z,21.49
2023-05-14T21:50:03.184Z,21.48
2023-05-14T21:52:30.495Z,21.51
2023-05-14T21:54:59.256Z,21.55
2023-05-14T21:57:28.411Z,21.55
2023-05-14T21:59:58.655Z,21.54
2023-05-14T22:02:29.309Z,21.51
2023-05-14T22:04:56.959Z,21.49
2023-05-14T22:07:24.236Z,21.46
2023-05-14T22:09:52.783Z,21.42
2023-05-14T22:12:20.020Z,21.36
2023-05-14T22:14:47.030Z,21.34
2023-05-14T22:17:19.746Z,21.35
2023-05-14T22:19:46.747Z,21.30
2023-05-14T22:22:13.861Z,21.30
2023-05-14T22:24:40.912Z,21.33
2023-05-14T22:27:08.013Z,21.32
2023-05-14T22:29:38.354Z,21.30
2023-05-14T22:32:08.401Z,21.26
2023-05-14T22:34:35.511Z,21.29
2023-05-14T22:37:03.324Z,21.35
2023-05-14T22:39:36.511Z,21.35
2023-05-14T22:42:03.694Z,21.33
2023-05-14T22:44:30.821Z,21.36
2023-05-14T22:46:58.139Z,21.38
2023-05-14T22:49:25.450Z,21.36
2023-05-14T22:51:54.406Z,21.40
2023-05-14T22:54:21.506Z,21.38
2023-05-14T22:56:54.852Z,21.37
2023-05-14T22:59:23.578Z,21.46
2023-05-14T23:01:51.261Z,21.46
2023-05-14T23:04:18.411Z,21.45
2023-05-14T23:06:45.550Z,21.41
2023-05-14T23:09:12.622Z,21.42
2023-05-14T23:11:39.822Z,21.29
2023-05-14T23:14:06.967Z,21.24
2023-05-14T23:16:35.483Z,21.25
2023-05-14T23:19:06.086Z,21.24
2023-05-14T23:21:33.825Z,21.22
2023-05-14T23:24:01.262Z,21.21
2023-05-14T23:26:28.585Z,21.25
2023-05-14T23:28:55.689Z,21.27
2023-05-14T23:31:23.974Z,21.30
2023-05-14T23:33:51.159Z,21.29
2023-05-14T23:36:20.404Z,21.27
2023-05-14T23:38:47.624Z,21.29
2023-05-14T23:41:14.850Z,21.28
2023-05-14T23:43:41.895Z,21.27
2023-05-14T23:46:09.367Z,21.32
2023-05-14T23:48:36.777Z,21.33
2023-05-14T23:51:04.105Z,21.34
2023-05-14T23:53:31.249Z,21.33
2023-05-14T23:55:58.613Z,21.36
2023-05-14T23:58:26.472Z,21.34
